createdAt,value
2019-03-10T00:01:09.549Z,7.80
2019-03-10T00:03:36.366Z,7.80
2019-03-10T00:06:03.411Z,7.60
2019-03-10T00:08:30.245Z,7.40
2019-03-10T00:10:56.916Z,7.50
2019-03-10T00:13:23.602Z,7.60
2019-03-10T00:15:50.241Z,7.70
2019-03-10T00:18:16.931Z,7.50
2019-03-10T00:20:43.792Z,7.60
2019-03-10T00:23:10.473Z,7.60
2019-03-10T00:25:37.124Z,7.50
2019-03-10T00:28:03.827Z,7.60
2019-03-10T00:30:30.814Z,7.40
2019-03-10T00:32:57.476Z,7.50
2019-03-10T00:35:24.177Z,7.40
2019-03-10T00:37:50.865Z,7.50
2019-03-10T00:40:37.827Z,7.70
2019-03-10T00:43:14.179Z,7.60
2019-03-10T00:46:14.945Z,7.70
2019-03-10T00:49:19.819Z,7.50
2019-03-10T00:52:08.405Z,7.60
2019-03-10T00:54:35.094Z,7.80
2019-03-10T00:57:01.726Z,7.90
2019-03-10T00:59:28.496Z,7.70
2019-03-10T01:01:55.182Z,7.70
2019-03-10T01:04:21.824Z,7.80
2019-03-10T01:06:48.915Z,7.80
2019-03-10T01:09:15.609Z,7.80
2019-03-10T01:11:42.339Z,7.50
2019-03-10T01:14:09.060Z,7.60
2019-03-10T01:16:36.138Z,7.70
2019-03-10T01:19:03.521Z,7.70
2019-03-10T01:21:31.048Z,7.80
2019-03-10T01:23:57.833Z,7.80
2019-03-10T01:26:25.401Z,7.70
2019-03-10T01:28:52.988Z,7.70
2019-03-10T01:31:26.302Z,7.60
2019-03-10T01:34:08.244Z,7.50
2019-03-10T01:36:36.428Z,7.70
2019-03-10T01:39:04.569Z,7.60
2019-03-10T01:41:31.256Z,7.60
2019-03-10T01:43:57.922Z,7.50
2019-03-10T01:46:24.708Z,7.70
2019-03-10T01:48:51.388Z,7.80
2019-03-10T01:51:18.448Z,7.80
2019-03-10T01:53:45.146Z,7.70
2019-03-10T01:56:11.772Z,7.70
2019-03-10T01:58:38.553Z,7.70
2019-03-10T02:01:05.293Z,7.90
2019-03-10T02:03:31.949Z,8.00
2019-03-10T02:05:58.629Z,7.90
2019-03-10T02:08:25.277Z,8.00
2019-03-10T02:10:51.952Z,7.70
2019-03-10T02:13:18.741Z,7.80
2019-03-10T02:15:45.409Z,7.90
2019-03-10T02:18:12.075Z,7.80
2019-03-10T02:20:38.848Z,7.80
2019-03-10T02:23:05.581Z,7.80
2019-03-10T02:25:32.282Z,8.00
2019-03-10T02:27:58.911Z,7.90
2019-03-10T02:30:25.547Z,7.90
2019-03-10T02:32:52.269Z,8.00
2019-03-10T02:35:18.889Z,8.00
2019-03-10T02:37:45.601Z,8.00
2019-03-10T02:40:12.210Z,8.10
2019-03-10T02:42:39.013Z,7.90
2019-03-10T02:45:07.743Z,7.80
2019-03-10T02:47:34.459Z,7.90
2019-03-10T02:50:01.103Z,7.90
2019-03-10T02:52:27.788Z,7.90
2019-03-10T02:54:54.438Z,7.80
2019-03-10T02:57:21.110Z,7.90
2019-03-10T02:59:47.778Z,7.90
2019-03-10T03:02:14.494Z,7.80
2019-03-10T03:04:41.169Z,7.90
2019-03-10T03:07:07.853Z,8.00
2019-03-10T03:09:34.553Z,8.00
2019-03-10T03:12:01.308Z,7.90
2019-03-10T03:14:27.982Z,7.90
2019-03-10T03:16:54.617Z,7.90
2019-03-10T03:19:21.314Z,7.90
2019-03-10T03:21:48.060Z,8.00
2019-03-10T03:24:14.839Z,8.00
2019-03-10T03:26:41.494Z,7.80
2019-03-10T03:29:08.164Z,7.80
2019-03-10T03:31:34.995Z,7.50
2019-03-10T03:34:01.672Z,7.50
2019-03-10T03:36:31.406Z,7.50
2019-03-10T03:39:13.761Z,7.60
2019-03-10T03:41:40.469Z,7.50
2019-03-10T03:44:07.101Z,7.60
2019-03-10T03:46:33.729Z,7.40
2019-03-10T03:49:00.421Z,7.30
2019-03-10T03:51:27.213Z,7.30
2019-03-10T03:53:53.916Z,7.50
2019-03-10T03:56:21.182Z,7.60
2019-03-10T03:58:48.269Z,7.70
2019-03-10T04:01:16.813Z,7.70
2019-03-10T04:03:43.516Z,7.70
2019-03-10T04:06:10.528Z,7.70
2019-03-10T04:08:37.352Z,7.60
2019-03-10T04:11:04.263Z,7.50
2019-03-10T04:13:31.275Z,7.60
2019-03-10T04:15:57.982Z,7.70
2019-03-10T04:18:24.654Z,7.70
2019-03-10T04:20:51.772Z,8.00
2019-03-10T04:23:18.769Z,7.80
2019-03-10T04:25:45.647Z,7.80
2019-03-10T04:28:12.451Z,7.70
2019-03-10T04:30:39.349Z,7.90
2019-03-10T04:33:07.857Z,7.80
2019-03-10T04:35:34.668Z,7.70
2019-03-10T04:38:01.397Z,7.70
2019-03-10T04:40:28.240Z,7.60
2019-03-10T04:42:54.944Z,7.50
2019-03-10T04:45:21.734Z,7.50
2019-03-10T04:47:48.402Z,7.40
2019-03-10T04:50:16.408Z,7.40
2019-03-10T04:52:43.401Z,7.50
2019-03-10T04:55:28.248Z,7.40
2019-03-10T04:57:56.841Z,7.30
2019-03-10T05:00:23.478Z,7.50
2019-03-10T05:02:50.148Z,7.50
2019-03-10T05:05:16.805Z,7.40
2019-03-10T05:07:43.537Z,7.30
2019-03-10T05:10:10.312Z,7.20
2019-03-10T05:12:36.995Z,7.20
2019-03-10T05:15:04.977Z,7.50
2019-03-10T05:17:31.617Z,7.20
2019-03-10T05:19:58.337Z,7.30
2019-03-10T05:22:25.035Z,7.20
2019-03-10T05:24:51.763Z,7.30
2019-03-10T05:27:18.443Z,7.20
2019-03-10T05:29:45.136Z,7.20
2019-03-10T05:32:11.853Z,7.30
2019-03-10T05:34:38.635Z,7.30
2019-03-10T05:37:05.272Z,7.30
2019-03-10T05:39:32.014Z,7.20
2019-03-10T05:41:58.733Z,7.10
2019-03-10T05:44:25.447Z,7.30
2019-03-10T05:46:52.350Z,7.30
2019-03-10T05:49:18.975Z,7.10
2019-03-10T05:51:47.160Z,7.10
2019-03-10T05:54:13.898Z,7.30
2019-03-10T05:56:40.536Z,7.20
2019-03-10T05:59:07.214Z,7.10
2019-03-10T06:01:33.940Z,7.10
2019-03-10T06:04:00.632Z,7.10
2019-03-10T06:06:27.306Z,7.00
2019-03-10T06:08:54.021Z,7.10
2019-03-10T06:11:20.773Z,7.30
2019-03-10T06:13:47.457Z,7.10
2019-03-10T06:16:14.184Z,7.20
2019-03-10T06:18:40.868Z,7.30
2019-03-10T06:21:12.530Z,7.30
2019-03-10T06:23:39.194Z,7.30
2019-03-10T06:26:05.873Z,7.20
2019-03-10T06:28:32.546Z,7.00
2019-03-10T06:30:59.303Z,7.00
2019-03-10T06:33:26.016Z,7.20
2019-03-10T06:35:52.722Z,7.20
2019-03-10T06:38:19.370Z,7.00
2019-03-10T06:40:46.041Z,7.20
2019-03-10T06:43:12.679Z,7.00
2019-03-10T06:45:39.350Z,6.90
2019-03-10T06:48:05.988Z,7.00
2019-03-10T06:50:32.772Z,6.80
2019-03-10T06:52:59.421Z,6.70
2019-03-10T06:55:26.084Z,6.70
2019-03-10T06:57:52.741Z,6.80
2019-03-10T07:00:19.397Z,6.60
2019-03-10T07:02:46.040Z,6.70
2019-03-10T07:05:12.700Z,6.50
2019-03-10T07:07:39.391Z,6.50
2019-03-10T07:10:09.607Z,6.60
2019-03-10T07:12:36.377Z,6.50
2019-03-10T07:15:04.418Z,6.40
2019-03-10T07:17:31.237Z,6.50
2019-03-10T07:19:57.920Z,6.50
2019-03-10T07:22:24.700Z,6.30
2019-03-10T07:24:51.352Z,6.30
2019-03-10T07:27:19.222Z,6.40
2019-03-10T07:29:47.782Z,6.40
2019-03-10T07:32:22.032Z,6.40
2019-03-10T07:34:53.105Z,6.20
2019-03-10T07:37:39.910Z,6.40
2019-03-10T07:40:20.290Z,6.10
2019-03-10T07:42:49.128Z,6.20
2019-03-10T07:45:23.470Z,6.20
2019-03-10T07:48:07.150Z,6.20
2019-03-10T07:50:38.653Z,5.80
2019-03-10T07:53:07.209Z,6.10
2019-03-10T07:55:35.803Z,6.10
2019-03-10T07:58:20.945Z,6.20
2019-03-10T08:00:52.273Z,6.20
2019-03-10T08:03:23.754Z,6.20
2019-03-10T08:06:01.159Z,6.00
2019-03-10T08:08:29.793Z,6.10
2019-03-10T08:11:10.602Z,5.80
2019-03-10T08:13:51.170Z,5.80
2019-03-10T08:16:28.790Z,5.70
2019-03-10T08:19:03.365Z,5.80
2019-03-10T08:21:37.980Z,5.90
2019-03-10T08:24:09.576Z,5.90
2019-03-10T08:26:38.125Z,6.20
2019-03-10T08:29:09.423Z,5.80
2019-03-10T08:31:54.613Z,5.90
2019-03-10T08:34:24.519Z,6.00
2019-03-10T08:36:59.043Z,6.00
2019-03-10T08:39:30.352Z,5.80
2019-03-10T08:42:20.347Z,5.70
2019-03-10T08:44:45.865Z,5.80
2019-03-10T08:47:14.474Z,6.10
2019-03-10T08:49:46.019Z,5.80
2019-03-10T08:52:29.981Z,6.10
2019-03-10T08:55:04.078Z,6.10
2019-03-10T08:57:35.512Z,6.00
2019-03-10T09:00:06.756Z,6.20
2019-03-10T09:02:41.163Z,5.80
2019-03-10T09:05:18.557Z,6.10
2019-03-10T09:07:56.328Z,5.70
2019-03-10T09:10:27.720Z,5.80
2019-03-10T09:13:08.476Z,6.00
2019-03-10T09:15:49.330Z,6.10
2019-03-10T09:18:27.172Z,6.00
2019-03-10T09:21:08.096Z,6.10
2019-03-10T09:23:36.697Z,6.40
2019-03-10T09:26:05.248Z,5.80
2019-03-10T09:28:33.824Z,5.90
2019-03-10T09:31:02.429Z,6.00
2019-03-10T09:33:31.158Z,6.10
2019-03-10T09:36:11.593Z,6.20
2019-03-10T09:38:40.238Z,5.90
2019-03-10T09:41:14.599Z,5.80
2019-03-10T09:43:45.901Z,5.90
2019-03-10T09:46:14.481Z,6.20
2019-03-10T09:48:45.873Z,6.30
2019-03-10T09:51:20.397Z,6.20
2019-03-10T09:53:51.986Z,6.10
2019-03-10T09:56:26.567Z,6.30
2019-03-10T09:59:07.313Z,6.30
2019-03-10T10:01:38.527Z,6.50
2019-03-10T10:04:19.042Z,6.50
2019-03-10T10:06:56.589Z,6.40
2019-03-10T10:09:31.006Z,6.40
2019-03-10T10:11:59.589Z,6.30
2019-03-10T10:14:37.375Z,6.50
2019-03-10T10:17:05.973Z,6.70
2019-03-10T10:19:34.554Z,6.90
2019-03-10T10:22:03.649Z,7.00
2019-03-10T10:24:32.214Z,7.30
2019-03-10T10:27:09.630Z,7.40
2019-03-10T10:29:38.149Z,7.60
2019-03-10T10:32:09.511Z,7.90
2019-03-10T10:34:56.449Z,7.60
2019-03-10T10:37:25.162Z,7.80
2019-03-10T10:39:53.733Z,8.20
2019-03-10T10:42:40.465Z,8.40
2019-03-10T10:45:24.815Z,8.50
2019-03-10T10:47:59.402Z,8.40
2019-03-10T10:50:27.972Z,8.10
2019-03-10T10:53:12.864Z,8.40
2019-03-10T10:55:44.198Z,8.80
2019-03-10T10:58:29.172Z,9.10
2019-03-10T11:01:14.547Z,8.90
2019-03-10T11:04:01.226Z,8.60
2019-03-10T11:06:41.660Z,8.90
2019-03-10T11:09:10.342Z,9.20
2019-03-10T11:11:38.917Z,9.00
2019-03-10T11:14:13.038Z,8.90
2019-03-10T11:16:50.511Z,8.50
2019-03-10T11:19:24.651Z,8.50
2019-03-10T11:21:55.985Z,8.50
2019-03-10T11:24:24.602Z,8.50
2019-03-10T11:27:08.283Z,8.50
2019-03-10T11:29:36.880Z,8.50
2019-03-10T11:32:22.143Z,8.20
2019-03-10T11:35:07.406Z,8.30
2019-03-10T11:37:48.017Z,8.30
2019-03-10T11:40:19.614Z,8.20
2019-03-10T11:42:48.197Z,8.10
2019-03-10T11:45:16.743Z,8.20
2019-03-10T11:47:45.361Z,8.10
2019-03-10T11:50:15.153Z,8.00
2019-03-10T11:52:46.858Z,8.10
2019-03-10T11:55:21.194Z,8.20
2019-03-10T11:57:49.778Z,8.60
2019-03-10T12:00:24.574Z,8.70
2019-03-10T12:02:56.303Z,9.00
2019-03-10T12:05:24.869Z,9.40
2019-03-10T12:07:59.217Z,9.60
2019-03-10T12:10:25.955Z,10.20
2019-03-10T12:12:52.777Z,10.70
2019-03-10T12:15:19.723Z,11.00
2019-03-10T12:17:46.504Z,10.90
2019-03-10T12:20:13.408Z,10.40
2019-03-10T12:22:59.813Z,10.30
2019-03-10T12:25:26.534Z,10.00
2019-03-10T12:27:53.269Z,9.90
2019-03-10T12:30:19.951Z,9.90
2019-03-10T12:32:46.766Z,9.90
2019-03-10T12:35:13.449Z,10.00
2019-03-10T12:37:40.123Z,10.10
2019-03-10T12:40:09.084Z,10.00
2019-03-10T12:42:35.746Z,10.00
2019-03-10T12:45:03.551Z,9.90
2019-03-10T12:47:30.179Z,10.00
2019-03-10T12:49:56.976Z,10.10
2019-03-10T12:52:23.738Z,10.20
2019-03-10T12:54:50.372Z,10.30
2019-03-10T12:57:17.189Z,10.50
2019-03-10T12:59:43.849Z,10.60
2019-03-10T13:02:10.524Z,10.70
2019-03-10T13:04:37.163Z,10.80
2019-03-10T13:07:03.835Z,10.90
2019-03-10T13:09:30.584Z,10.90
2019-03-10T13:11:57.258Z,11.10
2019-03-10T13:14:23.941Z,11.30
2019-03-10T13:16:50.714Z,11.20
2019-03-10T13:19:17.371Z,11.10
2019-03-10T13:21:44.470Z,11.00
2019-03-10T13:24:11.520Z,10.90
2019-03-10T13:26:57.945Z,10.90
2019-03-10T13:29:24.780Z,10.80
2019-03-10T13:31:51.572Z,10.80
2019-03-10T13:34:18.281Z,10.70
2019-03-10T13:36:45.127Z,10.50
2019-03-10T13:39:11.764Z,10.50
2019-03-10T13:41:38.389Z,10.30
2019-03-10T13:44:05.085Z,10.80
2019-03-10T13:46:31.847Z,11.00
2019-03-10T13:48:58.537Z,11.10
2019-03-10T13:51:25.320Z,11.00
2019-03-10T13:53:51.981Z,11.00
2019-03-10T13:56:19.270Z,11.10
2019-03-10T13:58:45.945Z,11.00
2019-03-10T14:01:12.700Z,10.90
2019-03-10T14:03:40.038Z,10.90
2019-03-10T14:06:06.757Z,10.80
2019-03-10T14:08:33.587Z,10.80
2019-03-10T14:11:00.312Z,10.80
2019-03-10T14:13:27.007Z,11.50
2019-03-10T14:15:53.749Z,11.70
2019-03-10T14:18:20.432Z,11.20
2019-03-10T14:20:47.173Z,11.10
2019-03-10T14:23:13.954Z,11.00
2019-03-10T14:25:40.696Z,11.00
2019-03-10T14:28:07.401Z,11.00
2019-03-10T14:30:34.220Z,11.00
2019-03-10T14:33:00.831Z,10.90
2019-03-10T14:35:27.536Z,10.90
2019-03-10T14:37:54.192Z,10.80
2019-03-10T14:40:21.087Z,10.60
2019-03-10T14:42:47.717Z,10.50
2019-03-10T14:45:15.630Z,10.40
2019-03-10T14:47:42.353Z,10.30
2019-03-10T14:50:12.169Z,10.10
2019-03-10T14:52:39.007Z,10.20
2019-03-10T14:55:09.133Z,10.40
2019-03-10T14:57:35.818Z,10.40
2019-03-10T15:00:05.823Z,10.40
2019-03-10T15:02:32.573Z,10.40
2019-03-10T15:04:59.209Z,10.40
2019-03-10T15:07:25.895Z,10.60
2019-03-10T15:09:52.531Z,10.70
2019-03-10T15:12:19.229Z,10.70
2019-03-10T15:14:45.918Z,10.70
2019-03-10T15:17:12.581Z,10.70
2019-03-10T15:19:39.216Z,10.70
2019-03-10T15:22:05.876Z,10.70
2019-03-10T15:24:32.512Z,10.70
2019-03-10T15:26:59.268Z,10.70
2019-03-10T15:29:25.964Z,10.70
2019-03-10T15:31:52.732Z,10.70
2019-03-10T15:34:39.185Z,10.90
2019-03-10T15:37:05.846Z,10.90
2019-03-10T15:39:32.622Z,10.80
2019-03-10T15:41:59.286Z,10.80
2019-03-10T15:44:26.011Z,10.80
2019-03-10T15:46:52.653Z,10.90
2019-03-10T15:49:19.474Z,10.90
2019-03-10T15:51:46.138Z,10.90
2019-03-10T15:54:12.790Z,10.90
2019-03-10T15:56:39.470Z,10.70
2019-03-10T15:59:06.134Z,10.60
2019-03-10T16:01:32.821Z,10.50
2019-03-10T16:04:04.261Z,10.50
2019-03-10T16:06:31.099Z,10.40
2019-03-10T16:08:57.824Z,10.50
2019-03-10T16:11:24.553Z,10.40
2019-03-10T16:13:51.287Z,10.30
2019-03-10T16:16:18.026Z,10.30
2019-03-10T16:18:44.782Z,10.20
2019-03-10T16:21:11.462Z,10.00
2019-03-10T16:23:38.127Z,10.00
2019-03-10T16:26:04.773Z,9.90
2019-03-10T16:28:31.587Z,9.80
2019-03-10T16:30:58.357Z,9.70
2019-03-10T16:33:25.541Z,9.70
2019-03-10T16:35:52.335Z,9.60
2019-03-10T16:38:19.142Z,9.60
2019-03-10T16:40:45.776Z,9.60
2019-03-10T16:43:12.513Z,9.50
2019-03-10T16:45:39.229Z,9.60
2019-03-10T16:48:05.998Z,9.50
2019-03-10T16:50:32.753Z,9.40
2019-03-10T16:52:59.386Z,9.40
2019-03-10T16:55:26.199Z,9.20
2019-03-10T16:57:52.957Z,9.10
2019-03-10T17:00:20.876Z,9.20
2019-03-10T17:02:48.201Z,9.00
2019-03-10T17:05:16.113Z,9.10
2019-03-10T17:07:42.965Z,9.00
2019-03-10T17:10:12.237Z,9.00
2019-03-10T17:12:38.870Z,9.00
2019-03-10T17:15:11.482Z,8.90
2019-03-10T17:17:38.105Z,8.80
2019-03-10T17:20:08.156Z,8.80
2019-03-10T17:22:34.822Z,8.80
2019-03-10T17:25:02.057Z,8.80
2019-03-10T17:27:28.836Z,8.70
2019-03-10T17:29:55.478Z,8.80
2019-03-10T17:32:22.187Z,8.70
2019-03-10T17:34:48.851Z,8.70
2019-03-10T17:37:15.580Z,8.70
2019-03-10T17:39:42.230Z,8.70
2019-03-10T17:42:08.905Z,8.70
2019-03-10T17:44:41.216Z,8.60
2019-03-10T17:47:04.174Z,8.60
2019-03-10T17:49:30.957Z,8.50
2019-03-10T17:51:57.737Z,8.50
2019-03-10T17:54:24.378Z,8.60
2019-03-10T17:56:51.198Z,8.40
2019-03-10T17:59:17.940Z,8.20
2019-03-10T18:01:44.686Z,8.00
2019-03-10T18:04:11.358Z,7.90
2019-03-10T18:06:37.993Z,7.70
2019-03-10T18:09:04.873Z,7.60
2019-03-10T18:11:31.610Z,7.50
2019-03-10T18:13:58.452Z,7.20
2019-03-10T18:16:26.219Z,7.10
2019-03-10T18:19:12.620Z,6.60
2019-03-10T18:21:39.441Z,6.40
2019-03-10T18:24:06.141Z,6.30
2019-03-10T18:26:32.816Z,6.20
2019-03-10T18:28:59.573Z,6.10
2019-03-10T18:31:26.360Z,6.00
2019-03-10T18:33:53.058Z,5.90
2019-03-10T18:36:19.717Z,5.70
2019-03-10T18:38:46.566Z,5.60
2019-03-10T18:41:13.206Z,5.40
2019-03-10T18:43:40.004Z,5.40
2019-03-10T18:46:06.641Z,5.10
2019-03-10T18:48:33.364Z,5.00
2019-03-10T18:51:00.002Z,5.00
2019-03-10T18:53:26.786Z,4.90
2019-03-10T18:55:53.437Z,5.10
2019-03-10T18:58:20.173Z,4.70
2019-03-10T19:00:46.974Z,4.90
2019-03-10T19:03:13.705Z,5.00
2019-03-10T19:05:40.474Z,4.90
2019-03-10T19:08:07.138Z,4.70
2019-03-10T19:10:33.831Z,4.90
2019-03-10T19:13:00.521Z,4.80
2019-03-10T19:15:27.376Z,4.70
2019-03-10T19:17:54.177Z,4.80
2019-03-10T19:20:22.830Z,4.70
2019-03-10T19:22:49.512Z,4.60
2019-03-10T19:25:16.341Z,4.80
2019-03-10T19:27:43.254Z,4.70
2019-03-10T19:30:13.499Z,4.60
2019-03-10T19:32:40.433Z,4.60
2019-03-10T19:35:08.768Z,4.70
2019-03-10T19:37:35.432Z,4.60
2019-03-10T19:40:03.524Z,4.70
2019-03-10T19:42:30.185Z,4.70
2019-03-10T19:44:56.847Z,4.80
2019-03-10T19:47:23.508Z,4.70
2019-03-10T19:49:50.156Z,4.80
2019-03-10T19:52:16.873Z,4.80
2019-03-10T19:54:43.559Z,4.80
2019-03-10T19:57:10.315Z,4.60
2019-03-10T19:59:37.086Z,4.90
2019-03-10T20:02:03.719Z,4.80
2019-03-10T20:04:30.434Z,4.60
2019-03-10T20:06:57.188Z,4.70
2019-03-10T20:09:23.961Z,4.50
2019-03-10T20:11:50.621Z,4.60
2019-03-10T20:14:17.261Z,4.60
2019-03-10T20:16:43.937Z,4.70
2019-03-10T20:19:10.708Z,4.80
2019-03-10T20:21:37.375Z,4.80
2019-03-10T20:24:04.253Z,4.80
2019-03-10T20:26:31.027Z,4.40
2019-03-10T20:28:57.802Z,4.30
2019-03-10T20:31:24.481Z,4.30
2019-03-10T20:33:52.460Z,4.70
2019-03-10T20:36:19.357Z,4.60
2019-03-10T20:38:46.006Z,4.70
2019-03-10T20:41:12.728Z,4.50
2019-03-10T20:43:39.388Z,4.70
2019-03-10T20:46:06.073Z,4.40
2019-03-10T20:48:32.778Z,4.60
2019-03-10T20:50:59.401Z,4.30
2019-03-10T20:53:26.099Z,4.40
2019-03-10T20:55:52.814Z,4.40
2019-03-10T20:58:19.501Z,4.30
2019-03-10T21:00:46.257Z,4.30
2019-03-10T21:03:12.929Z,4.60
2019-03-10T21:05:39.575Z,4.50
2019-03-10T21:08:06.248Z,4.50
2019-03-10T21:10:33.011Z,4.80
2019-03-10T21:12:59.807Z,4.70
2019-03-10T21:15:26.868Z,4.60
2019-03-10T21:17:53.601Z,4.70
2019-03-10T21:20:22.504Z,4.60
2019-03-10T21:22:49.249Z,4.70
2019-03-10T21:25:20.683Z,4.60
2019-03-10T21:27:47.520Z,4.60
2019-03-10T21:30:16.067Z,4.50
2019-03-10T21:32:42.844Z,4.40
2019-03-10T21:35:17.735Z,4.40
2019-03-10T21:37:38.270Z,4.40
2019-03-10T21:40:08.638Z,4.50
2019-03-10T21:42:35.289Z,4.50
2019-03-10T21:45:02.104Z,4.50
2019-03-10T21:47:28.867Z,4.70
2019-03-10T21:49:55.527Z,4.50
2019-03-10T21:52:22.322Z,4.60
2019-03-10T21:54:48.967Z,4.60
2019-03-10T21:57:15.741Z,4.40
2019-03-10T21:59:42.409Z,4.60
2019-03-10T22:02:09.110Z,4.60
2019-03-10T22:04:35.846Z,4.50
2019-03-10T22:07:02.657Z,4.40
2019-03-10T22:09:29.350Z,4.50
2019-03-10T22:11:56.015Z,4.40
2019-03-10T22:14:22.648Z,4.50
2019-03-10T22:16:49.305Z,4.40
2019-03-10T22:19:22.658Z,4.70
2019-03-10T22:21:44.712Z,4.60
2019-03-10T22:24:11.602Z,4.50
2019-03-10T22:26:38.324Z,4.50
2019-03-10T22:29:05.131Z,4.30
2019-03-10T22:31:31.798Z,4.40
2019-03-10T22:33:58.465Z,4.70
2019-03-10T22:36:25.113Z,4.50
2019-03-10T22:38:51.889Z,4.70
2019-03-10T22:41:18.554Z,4.50
2019-03-10T22:43:45.211Z,4.60
2019-03-10T22:46:11.872Z,4.50
2019-03-10T22:48:38.664Z,4.80
2019-03-10T22:51:05.294Z,4.60
2019-03-10T22:53:31.944Z,4.50
2019-03-10T22:55:58.605Z,4.40
2019-03-10T22:58:25.262Z,4.60
2019-03-10T23:00:54.623Z,4.60
2019-03-10T23:03:21.369Z,4.50
2019-03-10T23:05:48.157Z,4.30
2019-03-10T23:08:14.909Z,4.40
2019-03-10T23:10:41.707Z,4.60
2019-03-10T23:13:08.367Z,4.50
2019-03-10T23:15:35.042Z,4.60
2019-03-10T23:18:01.792Z,4.50
2019-03-10T23:20:28.484Z,4.70
2019-03-10T23:22:55.268Z,4.40
2019-03-10T23:25:22.031Z,4.50
2019-03-10T23:27:48.917Z,4.60
2019-03-10T23:30:16.590Z,4.40
2019-03-10T23:32:43.261Z,4.50
2019-03-10T23:35:10.002Z,4.40
2019-03-10T23:37:36.738Z,4.50
2019-03-10T23:40:06.397Z,4.60
2019-03-10T23:42:33.214Z,4.70
2019-03-10T23:44:59.863Z,4.70
2019-03-10T23:47:26.646Z,4.70
2019-03-10T23:49:53.309Z,4.70
2019-03-10T23:52:20.096Z,4.70
2019-03-10T23:54:46.711Z,4.60
2019-03-10T23:57:13.406Z,4.80
2019-03-10T23:59:40.035Z,4.70
